sensor_id;sensor_type;location;lat;lon;timestamp;temperature;humidity
25550;DHT22;13444;50.562;7.262;2023-04-24T00:01:37;11.90;99.90
25550;DHT22;13444;50.562;7.262;2023-04-24T00:04:05;11.90;99.90
25550;DHT22;13444;50.562;7.262;2023-04-24T00:06:32;11.90;99.90
25550;DHT22;13444;50.562;7.262;2023-04-24T00:09:03;11.80;99.90
25550;DHT22;13444;50.562;7.262;2023-04-24T00:11:29;11.80;99.90
25550;DHT22;13444;50.562;7.262;2023-04-24T00:13:55;11.80;99.90
25550;DHT22;13444;50.562;7.262;2023-04-24T00:16:22;11.80;99.90
25550;DHT22;13444;50.562;7.262;2023-04-24T00:18:47;11.90;99.90
25550;DHT22;13444;50.562;7.262;2023-04-24T00:21:13;11.80;99.90
25550;DHT22;13444;50.562;7.262;2023-04-24T00:23:40;11.90;99.90
25550;DHT22;13444;50.562;7.262;2023-04-24T00:26:05;11.90;99.90
25550;DHT22;13444;50.562;7.262;2023-04-24T00:28:31;11.80;99.90
25550;DHT22;13444;50.562;7.262;2023-04-24T00:30:57;11.80;99.90
25550;DHT22;13444;50.562;7.262;2023-04-24T00:33:22;11.80;99.90
25550;DHT22;13444;50.562;7.262;2023-04-24T00:35:48;11.80;99.90
25550;DHT22;13444;50.562;7.262;2023-04-24T00:38:13;11.90;99.90
25550;DHT22;13444;50.562;7.262;2023-04-24T00:40:39;11.90;99.90
25550;DHT22;13444;50.562;7.262;2023-04-24T00:43:04;11.80;99.90
25550;DHT22;13444;50.562;7.262;2023-04-24T00:45:30;11.80;99.90
25550;DHT22;13444;50.562;7.262;2023-04-24T00:47:56;11.80;99.90
25550;DHT22;13444;50.562;7.262;2023-04-24T00:50:23;11.80;99.90
25550;DHT22;13444;50.562;7.262;2023-04-24T00:52:49;11.80;99.90
25550;DHT22;13444;50.562;7.262;2023-04-24T00:55:15;11.80;99.90
25550;DHT22;13444;50.562;7.262;2023-04-24T00:57:41;11.80;99.90
25550;DHT22;13444;50.562;7.262;2023-04-24T01:00:07;11.80;99.90
25550;DHT22;13444;50.562;7.262;2023-04-24T01:02:36;11.70;99.90
25550;DHT22;13444;50.562;7.262;2023-04-24T01:05:02;11.70;99.90
25550;DHT22;13444;50.562;7.262;2023-04-24T01:07:28;11.80;99.90
25550;DHT22;13444;50.562;7.262;2023-04-24T01:09:54;11.80;99.90
25550;DHT22;13444;50.562;7.262;2023-04-24T01:12:20;11.70;99.90
25550;DHT22;13444;50.562;7.262;2023-04-24T01:14:46;11.70;99.90
25550;DHT22;13444;50.562;7.262;2023-04-24T01:17:11;11.70;99.90
25550;DHT22;13444;50.562;7.262;2023-04-24T01:19:37;11.70;99.90
25550;DHT22;13444;50.562;7.262;2023-04-24T01:22:08;11.60;99.90
25550;DHT22;13444;50.562;7.262;2023-04-24T01:24:34;11.60;99.90
25550;DHT22;13444;50.562;7.262;2023-04-24T01:26:59;11.60;99.90
25550;DHT22;13444;50.562;7.262;2023-04-24T01:29:26;11.70;99.90
25550;DHT22;13444;50.562;7.262;2023-04-24T01:31:52;11.60;99.90
25550;DHT22;13444;50.562;7.262;2023-04-24T01:34:18;11.70;99.90
25550;DHT22;13444;50.562;7.262;2023-04-24T01:36:45;11.70;99.90
25550;DHT22;13444;50.562;7.262;2023-04-24T01:39:12;11.70;99.90
25550;DHT22;13444;50.562;7.262;2023-04-24T01:41:37;11.70;99.90
25550;DHT22;13444;50.562;7.262;2023-04-24T01:44:03;11.70;99.90
25550;DHT22;13444;50.562;7.262;2023-04-24T01:46:29;11.70;99.90
25550;DHT22;13444;50.562;7.262;2023-04-24T01:48:55;11.80;99.90
25550;DHT22;13444;50.562;7.262;2023-04-24T01:51:21;11.80;99.90
25550;DHT22;13444;50.562;7.262;2023-04-24T01:53:47;11.80;99.90
25550;DHT22;13444;50.562;7.262;2023-04-24T01:56:12;11.80;99.90
25550;DHT22;13444;50.562;7.262;2023-04-24T01:58:39;11.80;99.90
25550;DHT22;13444;50.562;7.262;2023-04-24T02:01:06;11.80;99.90
25550;DHT22;13444;50.562;7.262;2023-04-24T02:03:32;11.80;99.90
25550;DHT22;13444;50.562;7.262;2023-04-24T02:05:57;11.80;99.90
25550;DHT22;13444;50.562;7.262;2023-04-24T02:08:23;11.70;99.90
25550;DHT22;13444;50.562;7.262;2023-04-24T02:10:49;11.70;99.90
25550;DHT22;13444;50.562;7.262;2023-04-24T02:13:14;11.70;99.90
25550;DHT22;13444;50.562;7.262;2023-04-24T02:15:40;11.70;99.90
25550;DHT22;13444;50.562;7.262;2023-04-24T02:18:05;11.60;99.90
25550;DHT22;13444;50.562;7.262;2023-04-24T02:20:32;11.60;99.90
25550;DHT22;13444;50.562;7.262;2023-04-24T02:22:59;11.60;99.90
25550;DHT22;13444;50.562;7.262;2023-04-24T02:25:24;11.50;99.90
25550;DHT22;13444;50.562;7.262;2023-04-24T02:27:50;11.40;99.90
25550;DHT22;13444;50.562;7.262;2023-04-24T02:30:15;11.40;99.90
25550;DHT22;13444;50.562;7.262;2023-04-24T02:32:41;11.50;99.90
25550;DHT22;13444;50.562;7.262;2023-04-24T02:35:07;11.40;99.90
25550;DHT22;13444;50.562;7.262;2023-04-24T02:37:32;11.40;99.90
25550;DHT22;13444;50.562;7.262;2023-04-24T02:39:58;11.30;99.90
25550;DHT22;13444;50.562;7.262;2023-04-24T02:42:23;11.30;99.90
25550;DHT22;13444;50.562;7.262;2023-04-24T02:44:49;11.30;99.90
25550;DHT22;13444;50.562;7.262;2023-04-24T02:47:16;11.30;99.90
25550;DHT22;13444;50.562;7.262;2023-04-24T02:49:42;11.20;99.90
25550;DHT22;13444;50.562;7.262;2023-04-24T02:52:07;11.20;99.90
25550;DHT22;13444;50.562;7.262;2023-04-24T02:54:33;11.00;99.90
25550;DHT22;13444;50.562;7.262;2023-04-24T02:56:58;11.00;99.90
25550;DHT22;13444;50.562;7.262;2023-04-24T02:59:24;10.90;99.90
25550;DHT22;13444;50.562;7.262;2023-04-24T03:01:49;10.80;99.90
25550;DHT22;13444;50.562;7.262;2023-04-24T03:04:15;10.70;99.90
25550;DHT22;13444;50.562;7.262;2023-04-24T03:06:40;10.60;99.90
25550;DHT22;13444;50.562;7.262;2023-04-24T03:09:06;10.50;99.90
25550;DHT22;13444;50.562;7.262;2023-04-24T03:11:31;10.50;99.90
25550;DHT22;13444;50.562;7.262;2023-04-24T03:13:57;10.40;99.90
25550;DHT22;13444;50.562;7.262;2023-04-24T03:16:22;10.40;99.90
25550;DHT22;13444;50.562;7.262;2023-04-24T03:18:48;10.30;99.90
25550;DHT22;13444;50.562;7.262;2023-04-24T03:21:13;10.30;99.90
25550;DHT22;13444;50.562;7.262;2023-04-24T03:23:39;10.20;99.90
25550;DHT22;13444;50.562;7.262;2023-04-24T03:26:04;10.20;99.90
25550;DHT22;13444;50.562;7.262;2023-04-24T03:28:30;10.10;99.90
25550;DHT22;13444;50.562;7.262;2023-04-24T03:30:56;10.10;99.90
25550;DHT22;13444;50.562;7.262;2023-04-24T03:33:21;10.10;99.90
25550;DHT22;13444;50.562;7.262;2023-04-24T03:35:47;10.10;99.90
25550;DHT22;13444;50.562;7.262;2023-04-24T03:38:12;10.00;99.90
25550;DHT22;13444;50.562;7.262;2023-04-24T03:40:38;10.00;99.90
25550;DHT22;13444;50.562;7.262;2023-04-24T03:43:03;10.00;99.90
25550;DHT22;13444;50.562;7.262;2023-04-24T03:45:29;9.90;99.90
25550;DHT22;13444;50.562;7.262;2023-04-24T03:47:54;9.90;99.90
25550;DHT22;13444;50.562;7.262;2023-04-24T03:50:20;9.80;99.90
25550;DHT22;13444;50.562;7.262;2023-04-24T03:52:45;9.80;99.90
25550;DHT22;13444;50.562;7.262;2023-04-24T03:55:11;9.70;99.90
25550;DHT22;13444;50.562;7.262;2023-04-24T03:57:39;9.70;99.90
25550;DHT22;13444;50.562;7.262;2023-04-24T04:00:05;9.60;99.90
25550;DHT22;13444;50.562;7.262;2023-04-24T04:02:31;9.60;99.90
25550;DHT22;13444;50.562;7.262;2023-04-24T04:04:57;9.50;99.90
25550;DHT22;13444;50.562;7.262;2023-04-24T04:07:22;9.50;99.90
25550;DHT22;13444;50.562;7.262;2023-04-24T04:09:47;9.50;99.90
25550;DHT22;13444;50.562;7.262;2023-04-24T04:12:13;9.50;99.90
25550;DHT22;13444;50.562;7.262;2023-04-24T04:14:38;9.50;99.90
25550;DHT22;13444;50.562;7.262;2023-04-24T04:17:04;9.50;99.90
25550;DHT22;13444;50.562;7.262;2023-04-24T04:19:30;9.60;99.90
25550;DHT22;13444;50.562;7.262;2023-04-24T04:21:56;9.50;99.90
25550;DHT22;13444;50.562;7.262;2023-04-24T04:24:21;9.50;99.90
25550;DHT22;13444;50.562;7.262;2023-04-24T04:26:47;9.50;99.90
25550;DHT22;13444;50.562;7.262;2023-04-24T04:29:16;9.50;99.90
25550;DHT22;13444;50.562;7.262;2023-04-24T04:31:43;9.50;99.90
25550;DHT22;13444;50.562;7.262;2023-04-24T04:34:08;9.40;99.90
25550;DHT22;13444;50.562;7.262;2023-04-24T04:36:34;9.40;99.90
25550;DHT22;13444;50.562;7.262;2023-04-24T04:39:02;9.40;99.90
25550;DHT22;13444;50.562;7.262;2023-04-24T04:41:28;9.40;99.90
25550;DHT22;13444;50.562;7.262;2023-04-24T04:43:53;9.40;99.90
25550;DHT22;13444;50.562;7.262;2023-04-24T04:46:19;9.40;99.90
25550;DHT22;13444;50.562;7.262;2023-04-24T04:48:44;9.40;99.90
25550;DHT22;13444;50.562;7.262;2023-04-24T04:51:11;9.40;99.90
25550;DHT22;13444;50.562;7.262;2023-04-24T04:53:36;9.40;99.90
25550;DHT22;13444;50.562;7.262;2023-04-24T04:56:02;9.50;99.90
25550;DHT22;13444;50.562;7.262;2023-04-24T04:58:28;9.50;99.90
25550;DHT22;13444;50.562;7.262;2023-04-24T05:00:53;9.50;99.90
25550;DHT22;13444;50.562;7.262;2023-04-24T05:03:19;9.50;99.90
25550;DHT22;13444;50.562;7.262;2023-04-24T05:05:44;9.50;99.90
25550;DHT22;13444;50.562;7.262;2023-04-24T05:08:10;9.50;99.90
25550;DHT22;13444;50.562;7.262;2023-04-24T05:10:35;9.50;99.90
25550;DHT22;13444;50.562;7.262;2023-04-24T05:13:02;9.60;99.90
25550;DHT22;13444;50.562;7.262;2023-04-24T05:15:28;9.50;99.90
25550;DHT22;13444;50.562;7.262;2023-04-24T05:17:54;9.50;99.90
25550;DHT22;13444;50.562;7.262;2023-04-24T05:20:19;9.60;99.90
25550;DHT22;13444;50.562;7.262;2023-04-24T05:22:45;9.60;99.90
25550;DHT22;13444;50.562;7.262;2023-04-24T05:25:10;9.60;99.90
25550;DHT22;13444;50.562;7.262;2023-04-24T05:27:37;9.60;99.90
25550;DHT22;13444;50.562;7.262;2023-04-24T05:30:03;9.60;99.90
25550;DHT22;13444;50.562;7.262;2023-04-24T05:32:30;9.60;99.90
25550;DHT22;13444;50.562;7.262;2023-04-24T05:34:55;9.70;99.90
25550;DHT22;13444;50.562;7.262;2023-04-24T05:37:21;9.70;99.90
25550;DHT22;13444;50.562;7.262;2023-04-24T05:39:46;9.70;99.90
25550;DHT22;13444;50.562;7.262;2023-04-24T05:42:12;9.60;99.90
25550;DHT22;13444;50.562;7.262;2023-04-24T05:44:37;9.70;99.90
25550;DHT22;13444;50.562;7.262;2023-04-24T05:47:03;9.70;99.90
25550;DHT22;13444;50.562;7.262;2023-04-24T05:49:28;9.70;99.90
25550;DHT22;13444;50.562;7.262;2023-04-24T05:51:54;9.80;99.90
25550;DHT22;13444;50.562;7.262;2023-04-24T05:54:19;9.80;99.90
25550;DHT22;13444;50.562;7.262;2023-04-24T05:56:45;9.80;99.90
25550;DHT22;13444;50.562;7.262;2023-04-24T05:59:11;9.80;99.90
25550;DHT22;13444;50.562;7.262;2023-04-24T06:01:37;9.90;99.90
25550;DHT22;13444;50.562;7.262;2023-04-24T06:04:03;10.00;99.90
25550;DHT22;13444;50.562;7.262;2023-04-24T06:06:29;10.00;99.90
25550;DHT22;13444;50.562;7.262;2023-04-24T06:08:55;10.00;99.90
25550;DHT22;13444;50.562;7.262;2023-04-24T06:11:20;10.10;99.90
25550;DHT22;13444;50.562;7.262;2023-04-24T06:13:46;10.20;99.90
25550;DHT22;13444;50.562;7.262;2023-04-24T06:16:12;10.30;99.90
25550;DHT22;13444;50.562;7.262;2023-04-24T06:18:37;10.40;99.90
25550;DHT22;13444;50.562;7.262;2023-04-24T06:21:03;10.50;99.90
25550;DHT22;13444;50.562;7.262;2023-04-24T06:23:29;10.50;99.90
25550;DHT22;13444;50.562;7.262;2023-04-24T06:25:54;10.50;99.90
25550;DHT22;13444;50.562;7.262;2023-04-24T06:28:20;10.50;99.90
25550;DHT22;13444;50.562;7.262;2023-04-24T06:30:45;10.50;99.90
25550;DHT22;13444;50.562;7.262;2023-04-24T06:33:11;10.50;99.90
25550;DHT22;13444;50.562;7.262;2023-04-24T06:35:36;10.50;99.90
25550;DHT22;13444;50.562;7.262;2023-04-24T06:38:03;10.50;99.90
25550;DHT22;13444;50.562;7.262;2023-04-24T06:40:29;10.50;99.90
25550;DHT22;13444;50.562;7.262;2023-04-24T06:42:55;10.50;99.90
25550;DHT22;13444;50.562;7.262;2023-04-24T06:45:21;10.50;99.90
25550;DHT22;13444;50.562;7.262;2023-04-24T06:47:46;10.50;99.90
25550;DHT22;13444;50.562;7.262;2023-04-24T06:50:12;10.50;99.90
25550;DHT22;13444;50.562;7.262;2023-04-24T06:52:37;10.50;99.90
25550;DHT22;13444;50.562;7.262;2023-04-24T06:55:03;10.50;99.90
25550;DHT22;13444;50.562;7.262;2023-04-24T06:57:29;10.50;99.90
25550;DHT22;13444;50.562;7.262;2023-04-24T06:59:55;10.60;99.90
25550;DHT22;13444;50.562;7.262;2023-04-24T07:02:21;10.60;99.90
25550;DHT22;13444;50.562;7.262;2023-04-24T07:04:46;10.70;99.90
25550;DHT22;13444;50.562;7.262;2023-04-24T07:07:13;10.70;99.90
25550;DHT22;13444;50.562;7.262;2023-04-24T07:09:40;10.80;99.90
25550;DHT22;13444;50.562;7.262;2023-04-24T07:12:10;10.80;99.90
25550;DHT22;13444;50.562;7.262;2023-04-24T07:14:36;10.80;99.90
25550;DHT22;13444;50.562;7.262;2023-04-24T07:17:05;10.90;99.90
25550;DHT22;13444;50.562;7.262;2023-04-24T07:19:33;10.80;99.90
25550;DHT22;13444;50.562;7.262;2023-04-24T07:21:58;10.90;99.90
25550;DHT22;13444;50.562;7.262;2023-04-24T07:24:25;10.90;99.90
25550;DHT22;13444;50.562;7.262;2023-04-24T07:26:51;11.00;99.90
25550;DHT22;13444;50.562;7.262;2023-04-24T07:29:18;11.10;99.90
25550;DHT22;13444;50.562;7.262;2023-04-24T07:31:44;11.10;99.90
25550;DHT22;13444;50.562;7.262;2023-04-24T07:34:10;11.10;99.90
25550;DHT22;13444;50.562;7.262;2023-04-24T07:36:36;11.10;99.90
25550;DHT22;13444;50.562;7.262;2023-04-24T07:39:04;11.20;99.90
25550;DHT22;13444;50.562;7.262;2023-04-24T07:41:29;11.20;99.90
25550;DHT22;13444;50.562;7.262;2023-04-24T07:43:55;11.20;99.90
25550;DHT22;13444;50.562;7.262;2023-04-24T07:46:21;11.20;99.90
25550;DHT22;13444;50.562;7.262;2023-04-24T07:48:46;11.20;99.90
25550;DHT22;13444;50.562;7.262;2023-04-24T07:51:14;11.30;99.90
25550;DHT22;13444;50.562;7.262;2023-04-24T07:53:39;11.20;99.90
25550;DHT22;13444;50.562;7.262;2023-04-24T07:56:05;11.30;99.90
25550;DHT22;13444;50.562;7.262;2023-04-24T07:58:31;11.30;99.90
25550;DHT22;13444;50.562;7.262;2023-04-24T08:00:56;11.20;99.90
25550;DHT22;13444;50.562;7.262;2023-04-24T08:03:22;11.20;99.90
25550;DHT22;13444;50.562;7.262;2023-04-24T08:05:47;11.20;99.90
25550;DHT22;13444;50.562;7.262;2023-04-24T08:08:13;11.20;99.90
25550;DHT22;13444;50.562;7.262;2023-04-24T08:10:39;11.10;99.90
25550;DHT22;13444;50.562;7.262;2023-04-24T08:13:05;11.10;99.90
25550;DHT22;13444;50.562;7.262;2023-04-24T08:15:30;11.00;99.90
25550;DHT22;13444;50.562;7.262;2023-04-24T08:17:57;11.00;99.90
25550;DHT22;13444;50.562;7.262;2023-04-24T08:20:22;11.00;99.90
25550;DHT22;13444;50.562;7.262;2023-04-24T08:22:48;11.00;99.90
25550;DHT22;13444;50.562;7.262;2023-04-24T08:25:14;11.00;99.90
25550;DHT22;13444;50.562;7.262;2023-04-24T08:27:39;10.90;99.90
25550;DHT22;13444;50.562;7.262;2023-04-24T08:30:06;10.80;99.90
25550;DHT22;13444;50.562;7.262;2023-04-24T08:32:32;10.80;99.90
25550;DHT22;13444;50.562;7.262;2023-04-24T08:34:58;10.80;99.90
25550;DHT22;13444;50.562;7.262;2023-04-24T08:37:25;10.80;99.90
25550;DHT22;13444;50.562;7.262;2023-04-24T08:39:51;10.70;99.90
25550;DHT22;13444;50.562;7.262;2023-04-24T08:42:17;10.80;99.90
25550;DHT22;13444;50.562;7.262;2023-04-24T08:44:43;10.70;99.90
25550;DHT22;13444;50.562;7.262;2023-04-24T08:47:10;10.80;99.90
25550;DHT22;13444;50.562;7.262;2023-04-24T08:49:36;10.80;99.90
25550;DHT22;13444;50.562;7.262;2023-04-24T08:52:03;10.80;99.90
25550;DHT22;13444;50.562;7.262;2023-04-24T08:54:30;10.80;99.90
25550;DHT22;13444;50.562;7.262;2023-04-24T08:56:59;10.80;99.90
25550;DHT22;13444;50.562;7.262;2023-04-24T08:59:27;10.70;99.90
25550;DHT22;13444;50.562;7.262;2023-04-24T09:01:53;10.60;99.90
25550;DHT22;13444;50.562;7.262;2023-04-24T09:04:20;10.60;99.90
25550;DHT22;13444;50.562;7.262;2023-04-24T09:06:48;10.60;99.90
25550;DHT22;13444;50.562;7.262;2023-04-24T09:09:16;10.60;99.90
25550;DHT22;13444;50.562;7.262;2023-04-24T09:11:42;10.60;99.90
25550;DHT22;13444;50.562;7.262;2023-04-24T09:14:09;10.60;99.90
25550;DHT22;13444;50.562;7.262;2023-04-24T09:16:35;10.70;99.90
25550;DHT22;13444;50.562;7.262;2023-04-24T09:19:01;10.70;99.90
25550;DHT22;13444;50.562;7.262;2023-04-24T09:21:32;10.60;99.90
25550;DHT22;13444;50.562;7.262;2023-04-24T09:24:08;10.70;99.90
25550;DHT22;13444;50.562;7.262;2023-04-24T09:26:39;10.70;99.90
25550;DHT22;13444;50.562;7.262;2023-04-24T09:29:04;10.70;99.90
25550;DHT22;13444;50.562;7.262;2023-04-24T09:31:30;10.80;99.90
25550;DHT22;13444;50.562;7.262;2023-04-24T09:34:01;10.80;99.90
25550;DHT22;13444;50.562;7.262;2023-04-24T09:36:46;10.90;99.90
25550;DHT22;13444;50.562;7.262;2023-04-24T09:39:14;11.00;99.90
25550;DHT22;13444;50.562;7.262;2023-04-24T09:41:54;11.10;99.90
25550;DHT22;13444;50.562;7.262;2023-04-24T09:44:27;11.10;99.90
25550;DHT22;13444;50.562;7.262;2023-04-24T09:46:58;11.10;99.90
25550;DHT22;13444;50.562;7.262;2023-04-24T09:49:29;11.20;99.90
25550;DHT22;13444;50.562;7.262;2023-04-24T09:52:10;11.20;99.90
25550;DHT22;13444;50.562;7.262;2023-04-24T09:54:37;11.20;99.90
25550;DHT22;13444;50.562;7.262;2023-04-24T09:57:03;11.30;99.90
25550;DHT22;13444;50.562;7.262;2023-04-24T09:59:29;11.30;99.90
25550;DHT22;13444;50.562;7.262;2023-04-24T10:01:55;11.30;99.90
25550;DHT22;13444;50.562;7.262;2023-04-24T10:04:28;11.30;99.90
25550;DHT22;13444;50.562;7.262;2023-04-24T10:06:55;11.30;99.90
25550;DHT22;13444;50.562;7.262;2023-04-24T10:09:23;11.40;99.90
25550;DHT22;13444;50.562;7.262;2023-04-24T10:11:51;11.40;99.90
25550;DHT22;13444;50.562;7.262;2023-04-24T10:14:19;11.30;99.90
25550;DHT22;13444;50.562;7.262;2023-04-24T10:16:46;11.30;99.90
25550;DHT22;13444;50.562;7.262;2023-04-24T10:19:13;11.40;99.90
25550;DHT22;13444;50.562;7.262;2023-04-24T10:21:40;11.40;99.90
25550;DHT22;13444;50.562;7.262;2023-04-24T10:24:18;11.40;99.90
25550;DHT22;13444;50.562;7.262;2023-04-24T10:26:46;11.50;99.90
25550;DHT22;13444;50.562;7.262;2023-04-24T10:29:14;11.50;99.90
25550;DHT22;13444;50.562;7.262;2023-04-24T10:31:40;11.50;99.90
25550;DHT22;13444;50.562;7.262;2023-04-24T10:34:07;11.50;99.90
25550;DHT22;13444;50.562;7.262;2023-04-24T10:36:34;11.50;99.90
25550;DHT22;13444;50.562;7.262;2023-04-24T10:39:02;11.60;99.90
25550;DHT22;13444;50.562;7.262;2023-04-24T10:41:30;11.60;99.90
25550;DHT22;13444;50.562;7.262;2023-04-24T10:46:32;11.60;99.90
25550;DHT22;13444;50.562;7.262;2023-04-24T10:48:57;11.40;99.90
25550;DHT22;13444;50.562;7.262;2023-04-24T10:51:24;11.40;99.90
25550;DHT22;13444;50.562;7.262;2023-04-24T10:54:41;11.10;99.90
25550;DHT22;13444;50.562;7.262;2023-04-24T11:02:37;11.40;99.90
25550;DHT22;13444;50.562;7.262;2023-04-24T11:05:04;11.50;99.90
25550;DHT22;13444;50.562;7.262;2023-04-24T11:07:29;11.60;99.90
25550;DHT22;13444;50.562;7.262;2023-04-24T11:09:58;11.80;99.90
25550;DHT22;13444;50.562;7.262;2023-04-24T11:12:26;12.00;99.90
25550;DHT22;13444;50.562;7.262;2023-04-24T11:17:34;12.40;99.90
25550;DHT22;13444;50.562;7.262;2023-04-24T11:20:07;12.70;99.90
25550;DHT22;13444;50.562;7.262;2023-04-24T11:22:35;13.20;99.90
25550;DHT22;13444;50.562;7.262;2023-04-24T11:25:02;13.80;99.90
25550;DHT22;13444;50.562;7.262;2023-04-24T11:27:38;14.40;99.90
25550;DHT22;13444;50.562;7.262;2023-04-24T11:30:05;14.70;99.90
25550;DHT22;13444;50.562;7.262;2023-04-24T11:35:08;14.70;99.90
25550;DHT22;13444;50.562;7.262;2023-04-24T11:37:36;14.60;99.90
25550;DHT22;13444;50.562;7.262;2023-04-24T11:40:03;14.50;99.90
25550;DHT22;13444;50.562;7.262;2023-04-24T11:42:34;14.30;99.90
25550;DHT22;13444;50.562;7.262;2023-04-24T11:45:00;14.00;99.90
25550;DHT22;13444;50.562;7.262;2023-04-24T11:47:31;13.60;99.90
25550;DHT22;13444;50.562;7.262;2023-04-24T11:49:59;13.30;99.90
25550;DHT22;13444;50.562;7.262;2023-04-24T11:52:29;13.10;99.90
25550;DHT22;13444;50.562;7.262;2023-04-24T11:54:54;12.90;99.90
25550;DHT22;13444;50.562;7.262;2023-04-24T11:57:21;12.70;99.90
25550;DHT22;13444;50.562;7.262;2023-04-24T11:59:48;12.90;99.90
25550;DHT22;13444;50.562;7.262;2023-04-24T12:02:21;13.00;99.90
25550;DHT22;13444;50.562;7.262;2023-04-24T12:04:47;13.10;99.90
25550;DHT22;13444;50.562;7.262;2023-04-24T12:07:12;13.00;99.90
25550;DHT22;13444;50.562;7.262;2023-04-24T12:09:47;12.80;99.90
25550;DHT22;13444;50.562;7.262;2023-04-24T12:12:14;12.80;99.90
25550;DHT22;13444;50.562;7.262;2023-04-24T12:14:44;12.90;99.90
25550;DHT22;13444;50.562;7.262;2023-04-24T12:17:10;13.10;99.90
25550;DHT22;13444;50.562;7.262;2023-04-24T12:19:35;13.30;99.90
25550;DHT22;13444;50.562;7.262;2023-04-24T12:22:02;13.70;99.90
25550;DHT22;13444;50.562;7.262;2023-04-24T12:24:29;14.20;99.90
25550;DHT22;13444;50.562;7.262;2023-04-24T12:26:55;14.50;99.90
25550;DHT22;13444;50.562;7.262;2023-04-24T12:29:21;14.80;99.90
25550;DHT22;13444;50.562;7.262;2023-04-24T12:31:47;14.70;99.90
25550;DHT22;13444;50.562;7.262;2023-04-24T12:34:23;14.60;99.90
25550;DHT22;13444;50.562;7.262;2023-04-24T12:36:50;14.60;99.90
25550;DHT22;13444;50.562;7.262;2023-04-24T12:39:19;14.50;99.90
25550;DHT22;13444;50.562;7.262;2023-04-24T12:41:57;14.40;99.90
25550;DHT22;13444;50.562;7.262;2023-04-24T12:44:33;14.60;99.90
25550;DHT22;13444;50.562;7.262;2023-04-24T12:47:00;15.10;99.90
25550;DHT22;13444;50.562;7.262;2023-04-24T12:49:26;15.60;99.90
25550;DHT22;13444;50.562;7.262;2023-04-24T12:51:51;15.80;99.90
25550;DHT22;13444;50.562;7.262;2023-04-24T12:54:18;16.00;99.90
25550;DHT22;13444;50.562;7.262;2023-04-24T12:56:43;16.40;99.90
25550;DHT22;13444;50.562;7.262;2023-04-24T12:59:09;16.70;99.90
25550;DHT22;13444;50.562;7.262;2023-04-24T13:01:34;17.00;99.90
25550;DHT22;13444;50.562;7.262;2023-04-24T13:04:00;17.10;99.90
25550;DHT22;13444;50.562;7.262;2023-04-24T13:06:25;17.20;99.90
25550;DHT22;13444;50.562;7.262;2023-04-24T13:08:51;17.30;99.90
25550;DHT22;13444;50.562;7.262;2023-04-24T13:11:17;17.20;99.90
25550;DHT22;13444;50.562;7.262;2023-04-24T13:13:43;17.10;99.90
25550;DHT22;13444;50.562;7.262;2023-04-24T13:16:08;17.00;99.90
25550;DHT22;13444;50.562;7.262;2023-04-24T13:18:34;16.80;99.90
25550;DHT22;13444;50.562;7.262;2023-04-24T13:21:00;16.30;99.90
25550;DHT22;13444;50.562;7.262;2023-04-24T13:23:25;15.70;99.90
25550;DHT22;13444;50.562;7.262;2023-04-24T13:25:51;15.30;99.90
25550;DHT22;13444;50.562;7.262;2023-04-24T13:28:17;14.90;99.90
25550;DHT22;13444;50.562;7.262;2023-04-24T13:30:42;14.50;99.90
25550;DHT22;13444;50.562;7.262;2023-04-24T13:33:08;14.20;99.90
25550;DHT22;13444;50.562;7.262;2023-04-24T13:35:34;14.10;99.90
25550;DHT22;13444;50.562;7.262;2023-04-24T13:37:59;13.90;99.90
25550;DHT22;13444;50.562;7.262;2023-04-24T13:40:26;13.80;99.90
25550;DHT22;13444;50.562;7.262;2023-04-24T13:42:52;13.90;99.90
25550;DHT22;13444;50.562;7.262;2023-04-24T13:45:18;14.00;99.90
25550;DHT22;13444;50.562;7.262;2023-04-24T13:47:43;14.20;99.90
25550;DHT22;13444;50.562;7.262;2023-04-24T13:50:09;14.40;99.90
25550;DHT22;13444;50.562;7.262;2023-04-24T13:52:35;14.60;99.90
25550;DHT22;13444;50.562;7.262;2023-04-24T13:55:01;14.70;99.90
25550;DHT22;13444;50.562;7.262;2023-04-24T13:57:26;14.60;99.90
25550;DHT22;13444;50.562;7.262;2023-04-24T13:59:53;14.50;99.90
25550;DHT22;13444;50.562;7.262;2023-04-24T14:02:20;14.60;99.90
25550;DHT22;13444;50.562;7.262;2023-04-24T14:04:46;14.60;99.90
25550;DHT22;13444;50.562;7.262;2023-04-24T14:07:13;14.60;99.90
25550;DHT22;13444;50.562;7.262;2023-04-24T14:09:39;14.40;99.90
25550;DHT22;13444;50.562;7.262;2023-04-24T14:12:04;14.30;99.90
25550;DHT22;13444;50.562;7.262;2023-04-24T14:14:31;14.20;99.90
25550;DHT22;13444;50.562;7.262;2023-04-24T14:16:57;14.30;99.90
25550;DHT22;13444;50.562;7.262;2023-04-24T14:19:22;14.30;99.90
25550;DHT22;13444;50.562;7.262;2023-04-24T14:21:49;14.30;99.90
25550;DHT22;13444;50.562;7.262;2023-04-24T14:24:14;14.40;99.90
25550;DHT22;13444;50.562;7.262;2023-04-24T14:26:40;14.40;99.90
25550;DHT22;13444;50.562;7.262;2023-04-24T14:29:06;14.30;99.90
25550;DHT22;13444;50.562;7.262;2023-04-24T14:31:32;14.30;99.90
25550;DHT22;13444;50.562;7.262;2023-04-24T14:33:57;14.30;99.90
25550;DHT22;13444;50.562;7.262;2023-04-24T14:36:23;14.20;99.90
25550;DHT22;13444;50.562;7.262;2023-04-24T14:38:49;14.10;99.90
25550;DHT22;13444;50.562;7.262;2023-04-24T14:41:15;14.10;99.90
25550;DHT22;13444;50.562;7.262;2023-04-24T14:43:40;13.90;99.90
25550;DHT22;13444;50.562;7.262;2023-04-24T14:46:06;13.70;99.90
25550;DHT22;13444;50.562;7.262;2023-04-24T14:48:31;13.70;99.90
25550;DHT22;13444;50.562;7.262;2023-04-24T14:50:57;13.80;99.90
25550;DHT22;13444;50.562;7.262;2023-04-24T14:53:23;13.90;99.90
25550;DHT22;13444;50.562;7.262;2023-04-24T14:55:49;13.90;99.90
25550;DHT22;13444;50.562;7.262;2023-04-24T14:58:14;13.90;99.90
25550;DHT22;13444;50.562;7.262;2023-04-24T15:00:40;13.90;99.90
25550;DHT22;13444;50.562;7.262;2023-04-24T15:03:05;13.80;99.90
25550;DHT22;13444;50.562;7.262;2023-04-24T15:05:31;13.80;99.90
25550;DHT22;13444;50.562;7.262;2023-04-24T15:07:57;13.80;99.90
25550;DHT22;13444;50.562;7.262;2023-04-24T15:10:22;13.80;99.90
25550;DHT22;13444;50.562;7.262;2023-04-24T15:12:49;13.80;99.90
25550;DHT22;13444;50.562;7.262;2023-04-24T15:15:15;13.80;99.90
25550;DHT22;13444;50.562;7.262;2023-04-24T15:17:40;13.70;99.90
25550;DHT22;13444;50.562;7.262;2023-04-24T15:20:06;13.70;99.90
25550;DHT22;13444;50.562;7.262;2023-04-24T15:22:32;13.80;99.90
25550;DHT22;13444;50.562;7.262;2023-04-24T15:24:58;13.90;99.90
25550;DHT22;13444;50.562;7.262;2023-04-24T15:27:23;14.00;99.90
25550;DHT22;13444;50.562;7.262;2023-04-24T15:29:49;14.00;99.90
25550;DHT22;13444;50.562;7.262;2023-04-24T15:32:14;14.00;99.90
25550;DHT22;13444;50.562;7.262;2023-04-24T15:34:40;14.00;99.90
25550;DHT22;13444;50.562;7.262;2023-04-24T15:37:06;14.00;99.90
25550;DHT22;13444;50.562;7.262;2023-04-24T15:39:31;13.90;99.90
25550;DHT22;13444;50.562;7.262;2023-04-24T15:41:59;13.90;99.90